createdAt,value
2023-03-08T00:01:27.282Z,6.20
2023-03-08T00:03:58.116Z,6.37
2023-03-08T00:06:28.225Z,5.33
2023-03-08T00:08:58.182Z,5.63
2023-03-08T00:11:28.962Z,6.17
2023-03-08T00:13:57.536Z,5.93
2023-03-08T00:16:26.390Z,5.37
2023-03-08T00:18:54.819Z,5.23
2023-03-08T00:21:23.461Z,5.60
2023-03-08T00:23:53.948Z,5.80
2023-03-08T00:26:22.345Z,5.23
2023-03-08T00:28:56.156Z,5.50
2023-03-08T00:31:24.744Z,6.30
2023-03-08T00:33:57.706Z,5.90
2023-03-08T00:36:26.454Z,6.10
2023-03-08T00:38:54.966Z,6.00
2023-03-08T00:41:23.829Z,6.13
2023-03-08T00:43:53.569Z,5.93
2023-03-08T00:46:21.937Z,5.50
2023-03-08T00:48:50.345Z,6.10
2023-03-08T00:51:21.632Z,6.20
2023-03-08T00:53:50.739Z,5.80
2023-03-08T00:56:19.330Z,5.73
2023-03-08T00:58:48.262Z,6.10
2023-03-08T01:01:20.192Z,5.70
2023-03-08T01:03:50.581Z,5.80
2023-03-08T01:06:19.283Z,5.73
2023-03-08T01:08:47.728Z,5.83
2023-03-08T01:11:21.935Z,5.53
2023-03-08T01:13:52.023Z,5.37
2023-03-08T01:16:25.758Z,5.83
2023-03-08T01:18:54.872Z,5.73
2023-03-08T01:21:24.992Z,5.60
2023-03-08T01:23:53.829Z,6.03
2023-03-08T01:26:24.738Z,5.80
2023-03-08T01:28:57.637Z,5.33
2023-03-08T01:31:31.537Z,5.47
2023-03-08T01:34:01.350Z,5.87
2023-03-08T01:36:30.236Z,5.93
2023-03-08T01:39:02.093Z,6.20
2023-03-08T01:41:33.647Z,5.87
2023-03-08T01:44:03.201Z,5.80
2023-03-08T01:46:34.845Z,5.83
2023-03-08T01:49:37.699Z,5.90
2023-03-08T01:52:13.762Z,6.33
2023-03-08T01:54:47.404Z,6.43
2023-03-08T01:57:22.868Z,6.47
2023-03-08T01:59:54.876Z,5.77
2023-03-08T02:02:30.926Z,5.67
2023-03-08T02:04:59.462Z,5.53
2023-03-08T02:07:28.932Z,5.60
2023-03-08T02:09:57.521Z,5.30
2023-03-08T02:12:27.593Z,5.57
2023-03-08T02:14:57.904Z,6.00
2023-03-08T02:17:30.892Z,6.00
2023-03-08T02:20:12.771Z,5.60
2023-03-08T02:22:44.073Z,5.80
2023-03-08T02:25:16.776Z,5.87
2023-03-08T02:27:45.746Z,5.83
2023-03-08T02:30:18.310Z,5.80
2023-03-08T02:32:47.035Z,5.57
2023-03-08T02:35:15.387Z,6.20
2023-03-08T02:37:45.162Z,5.83
2023-03-08T02:40:14.672Z,5.90
2023-03-08T02:42:43.014Z,6.30
2023-03-08T02:45:13.416Z,6.13
2023-03-08T02:47:42.375Z,6.30
2023-03-08T02:50:12.300Z,6.27
2023-03-08T02:52:40.690Z,6.43
2023-03-08T02:55:11.621Z,5.83
2023-03-08T02:57:40.437Z,5.40
2023-03-08T03:00:12.232Z,5.63
2023-03-08T03:02:40.727Z,5.77
2023-03-08T03:05:12.063Z,5.40
2023-03-08T03:07:44.533Z,6.30
2023-03-08T03:10:21.711Z,5.20
2023-03-08T03:12:50.202Z,5.70
2023-03-08T03:15:22.819Z,5.70
2023-03-08T03:17:55.333Z,6.20
2023-03-08T03:20:23.836Z,6.20
2023-03-08T03:22:52.215Z,5.00
2023-03-08T03:25:26.250Z,5.80
2023-03-08T03:27:56.354Z,5.37
2023-03-08T03:30:26.684Z,5.70
2023-03-08T03:32:55.318Z,5.43
2023-03-08T03:35:28.746Z,5.53
2023-03-08T03:37:57.777Z,5.47
2023-03-08T03:40:28.505Z,5.73
2023-03-08T03:43:01.711Z,4.93
2023-03-08T03:45:30.700Z,5.47
2023-03-08T03:47:59.067Z,5.17
2023-03-08T03:50:29.008Z,5.60
2023-03-08T03:53:05.605Z,5.20
2023-03-08T03:55:36.050Z,5.23
2023-03-08T03:58:05.460Z,5.60
2023-03-08T04:00:34.700Z,6.30
2023-03-08T04:03:13.401Z,5.40
2023-03-08T04:05:41.861Z,5.77
2023-03-08T04:08:10.241Z,5.70
2023-03-08T04:10:43.236Z,5.33
2023-03-08T04:13:13.285Z,5.70
2023-03-08T04:15:43.690Z,5.13
2023-03-08T04:18:14.387Z,5.77
2023-03-08T04:20:46.316Z,5.87
2023-03-08T04:23:15.910Z,5.30
2023-03-08T04:25:48.658Z,6.07
2023-03-08T04:28:18.278Z,6.10
2023-03-08T04:30:46.945Z,5.97
2023-03-08T04:33:19.365Z,5.87
2023-03-08T04:35:50.575Z,6.47
2023-03-08T04:38:22.420Z,6.43
2023-03-08T04:41:05.575Z,6.10
2023-03-08T04:43:57.382Z,6.37
2023-03-08T04:46:34.576Z,6.33
2023-03-08T04:49:04.070Z,6.23
2023-03-08T04:51:42.556Z,6.27
2023-03-08T04:54:12.402Z,6.03
2023-03-08T04:56:48.460Z,6.30
2023-03-08T04:59:17.651Z,5.87
2023-03-08T05:01:46.133Z,5.67
2023-03-08T05:04:14.962Z,6.17
2023-03-08T05:06:43.712Z,6.13
2023-03-08T05:09:15.888Z,6.00
2023-03-08T05:11:47.498Z,6.33
2023-03-08T05:14:17.206Z,6.07
2023-03-08T05:16:46.212Z,6.07
2023-03-08T05:19:15.502Z,5.87
2023-03-08T05:21:49.403Z,5.93
2023-03-08T05:24:18.376Z,6.50
2023-03-08T05:26:48.462Z,6.70
2023-03-08T05:29:19.402Z,5.97
2023-03-08T05:31:48.016Z,5.53
2023-03-08T05:34:17.036Z,7.03
2023-03-08T05:36:48.449Z,5.73
2023-03-08T05:39:17.006Z,6.40
2023-03-08T05:41:59.568Z,5.53
2023-03-08T05:44:33.120Z,6.73
2023-03-08T05:47:01.957Z,5.87
2023-03-08T05:49:30.753Z,5.93
2023-03-08T05:51:59.995Z,5.70
2023-03-08T05:54:29.889Z,5.67
2023-03-08T05:57:04.799Z,6.40
2023-03-08T05:59:33.338Z,5.83
2023-03-08T06:02:04.874Z,6.77
2023-03-08T06:04:49.331Z,6.23
2023-03-08T06:07:21.168Z,6.67
2023-03-08T06:09:55.895Z,5.97
2023-03-08T06:12:26.742Z,6.63
2023-03-08T06:14:59.125Z,6.00
2023-03-08T06:17:30.574Z,7.40
2023-03-08T06:20:01.451Z,8.50
2023-03-08T06:22:31.724Z,9.67
2023-03-08T06:25:01.418Z,9.17
2023-03-08T06:27:36.444Z,9.43
2023-03-08T06:30:12.505Z,10.30
2023-03-08T06:32:41.374Z,9.73
2023-03-08T06:35:10.642Z,9.50
2023-03-08T06:37:45.332Z,9.07
2023-03-08T06:40:14.543Z,8.10
2023-03-08T06:42:44.859Z,8.40
2023-03-08T06:45:15.928Z,9.30
2023-03-08T06:47:44.183Z,8.67
2023-03-08T06:50:14.327Z,7.23
2023-03-08T06:52:46.194Z,8.20
2023-03-08T06:55:16.699Z,8.87
2023-03-08T06:57:47.020Z,8.73
2023-03-08T07:00:16.733Z,8.87
2023-03-08T07:02:45.392Z,8.43
2023-03-08T07:05:14.464Z,7.60
2023-03-08T07:07:43.360Z,8.27
2023-03-08T07:10:15.972Z,8.00
2023-03-08T07:12:48.469Z,8.73
2023-03-08T07:15:19.473Z,8.80
2023-03-08T07:17:49.485Z,8.80
2023-03-08T07:20:22.281Z,9.93
2023-03-08T07:22:51.282Z,9.37
2023-03-08T07:25:22.527Z,9.73
2023-03-08T07:27:52.308Z,9.33
2023-03-08T07:30:21.513Z,8.97
2023-03-08T07:32:49.900Z,9.57
2023-03-08T07:35:18.610Z,9.53
2023-03-08T07:37:48.732Z,10.03
2023-03-08T07:40:18.922Z,9.60
2023-03-08T07:42:47.290Z,9.57
2023-03-08T07:45:31.974Z,9.97
2023-03-08T07:48:00.360Z,9.70
2023-03-08T07:50:28.856Z,10.27
2023-03-08T07:52:57.108Z,10.47
2023-03-08T07:55:25.954Z,10.77
2023-03-08T07:57:54.353Z,10.97
2023-03-08T08:00:23.553Z,11.13
2023-03-08T08:02:54.381Z,10.50
2023-03-08T08:05:22.954Z,10.13
2023-03-08T08:07:51.489Z,10.70
2023-03-08T08:10:20.462Z,11.27
2023-03-08T08:12:49.025Z,10.47
2023-03-08T08:15:18.002Z,10.47
2023-03-08T08:17:46.361Z,10.37
2023-03-08T08:20:16.078Z,10.90
2023-03-08T08:22:44.827Z,10.57
2023-03-08T08:25:13.145Z,10.47
2023-03-08T08:27:41.486Z,10.83
2023-03-08T08:30:14.001Z,9.60
2023-03-08T08:32:42.790Z,10.90
2023-03-08T08:35:12.058Z,10.30
2023-03-08T08:37:42.655Z,11.53
2023-03-08T08:40:13.022Z,10.90
2023-03-08T08:42:41.489Z,10.77
2023-03-08T08:45:11.653Z,10.77
2023-03-08T08:47:39.967Z,10.60
2023-03-08T08:50:09.150Z,11.23
2023-03-08T08:52:37.458Z,10.77
2023-03-08T08:55:07.882Z,11.13
2023-03-08T08:57:40.171Z,11.17
2023-03-08T09:00:11.809Z,12.30
2023-03-08T09:02:40.203Z,11.17
2023-03-08T09:05:09.766Z,11.27
2023-03-08T09:07:39.259Z,11.57
2023-03-08T09:10:11.550Z,12.23
2023-03-08T09:12:40.163Z,12.83
2023-03-08T09:15:10.221Z,12.67
2023-03-08T09:17:39.430Z,13.77
2023-03-08T09:20:13.564Z,13.60
2023-03-08T09:22:42.764Z,12.07
2023-03-08T09:25:14.009Z,12.43
2023-03-08T09:27:43.388Z,13.30
2023-03-08T09:30:19.288Z,12.73
2023-03-08T09:32:47.917Z,12.87
2023-03-08T09:35:16.942Z,13.23
2023-03-08T09:37:45.402Z,12.50
2023-03-08T09:40:24.799Z,12.97
2023-03-08T09:43:01.081Z,13.03
2023-03-08T09:45:30.778Z,14.63
2023-03-08T09:48:11.104Z,15.00
2023-03-08T09:50:48.480Z,13.83
2023-03-08T09:53:28.625Z,14.20
2023-03-08T09:56:05.322Z,14.60
2023-03-08T09:58:41.697Z,15.37
2023-03-08T10:01:33.776Z,15.03
2023-03-08T10:04:35.660Z,15.03
2023-03-08T10:07:25.233Z,13.90
2023-03-08T10:10:14.169Z,13.33
2023-03-08T10:13:04.852Z,13.47
2023-03-08T10:15:40.808Z,13.67
2023-03-08T10:18:24.384Z,13.60
2023-03-08T10:20:54.124Z,12.80
2023-03-08T10:23:26.005Z,13.97
2023-03-08T10:25:54.442Z,14.57
2023-03-08T10:28:27.638Z,13.90
2023-03-08T10:30:59.125Z,13.53
2023-03-08T10:33:34.441Z,12.87
2023-03-08T10:36:12.612Z,14.60
2023-03-08T10:38:41.400Z,13.77
2023-03-08T10:41:17.166Z,15.50
2023-03-08T10:43:50.901Z,14.87
2023-03-08T10:46:22.786Z,14.03
2023-03-08T10:48:52.027Z,14.70
2023-03-08T10:51:23.579Z,15.80
2023-03-08T10:54:00.110Z,15.53
2023-03-08T10:56:41.029Z,16.23
2023-03-08T10:59:27.603Z,16.23
2023-03-08T11:02:00.281Z,17.27
2023-03-08T11:04:31.983Z,18.50
2023-03-08T11:07:11.780Z,17.93
2023-03-08T11:09:40.379Z,16.60
2023-03-08T11:12:25.518Z,18.50
2023-03-08T11:14:58.570Z,17.27
2023-03-08T11:17:39.229Z,17.73
2023-03-08T11:20:24.964Z,17.93
2023-03-08T11:23:15.579Z,17.83
2023-03-08T11:25:48.694Z,18.07
2023-03-08T11:28:45.310Z,17.93
2023-03-08T11:31:32.704Z,17.50
2023-03-08T11:34:52.148Z,17.93
2023-03-08T11:37:33.593Z,16.97
2023-03-08T11:40:15.726Z,17.33
2023-03-08T11:43:00.282Z,17.27
2023-03-08T11:45:37.022Z,17.27
2023-03-08T11:48:56.049Z,18.43
2023-03-08T11:51:34.054Z,16.60
2023-03-08T11:54:19.656Z,17.70
2023-03-08T11:56:53.747Z,18.03
2023-03-08T11:59:32.517Z,17.47
2023-03-08T12:02:10.908Z,16.53
2023-03-08T12:04:47.066Z,17.97
2023-03-08T12:07:25.948Z,17.90
2023-03-08T12:10:02.397Z,17.33
2023-03-08T12:12:38.433Z,16.93
2023-03-08T12:15:25.933Z,16.70
2023-03-08T12:18:00.292Z,17.67
2023-03-08T12:20:38.509Z,17.87
2023-03-08T12:23:22.303Z,18.50
2023-03-08T12:25:57.384Z,17.20
2023-03-08T12:28:33.197Z,17.20
2023-03-08T12:31:29.614Z,17.20
2023-03-08T12:34:00.955Z,16.63
2023-03-08T12:36:42.405Z,17.03
2023-03-08T12:39:26.742Z,17.10
2023-03-08T12:42:14.341Z,16.50
2023-03-08T12:44:44.092Z,17.43
2023-03-08T12:47:24.096Z,17.27
2023-03-08T12:49:57.376Z,16.87
2023-03-08T12:52:35.019Z,16.37
2023-03-08T12:55:11.032Z,16.03
2023-03-08T12:57:49.026Z,16.30
2023-03-08T13:00:31.932Z,15.37
2023-03-08T13:03:04.507Z,15.43
2023-03-08T13:05:37.887Z,16.13
2023-03-08T13:08:28.452Z,16.53
2023-03-08T13:11:11.864Z,15.83
2023-03-08T13:13:50.598Z,16.03
2023-03-08T13:16:33.222Z,16.43
2023-03-08T13:19:22.211Z,15.53
2023-03-08T13:22:00.128Z,14.70
2023-03-08T13:24:45.527Z,15.07
2023-03-08T13:27:40.234Z,20.97
2023-03-08T13:30:24.209Z,18.60
2023-03-08T13:32:53.483Z,15.13
2023-03-08T13:35:22.755Z,15.93
2023-03-08T13:37:56.229Z,15.13
2023-03-08T13:40:28.206Z,17.40
2023-03-08T13:42:58.762Z,15.50
2023-03-08T13:45:28.154Z,15.40
2023-03-08T13:48:03.931Z,15.23
2023-03-08T13:50:35.306Z,16.07
2023-03-08T13:53:10.443Z,21.00
2023-03-08T13:55:51.710Z,28.03
2023-03-08T13:58:32.210Z,27.47
2023-03-08T14:01:12.278Z,28.87
2023-03-08T14:03:43.343Z,20.90
2023-03-08T14:06:22.329Z,13.93
2023-03-08T14:08:54.407Z,19.73
2023-03-08T14:11:30.317Z,16.27
2023-03-08T14:14:01.868Z,24.13
2023-03-08T14:16:34.819Z,17.47
2023-03-08T14:19:13.001Z,19.33
2023-03-08T14:21:51.490Z,17.33
2023-03-08T14:24:24.257Z,15.93
2023-03-08T14:27:01.511Z,18.17
2023-03-08T14:29:32.698Z,15.23
2023-03-08T14:32:07.210Z,16.10
2023-03-08T14:34:39.583Z,15.37
2023-03-08T14:37:21.116Z,14.23
2023-03-08T14:39:52.966Z,16.20
2023-03-08T14:42:27.948Z,16.23
2023-03-08T14:45:00.443Z,15.17
2023-03-08T14:47:31.659Z,14.80
2023-03-08T14:50:04.780Z,15.20
2023-03-08T14:52:36.638Z,14.90
2023-03-08T14:55:21.369Z,14.80
2023-03-08T14:57:53.525Z,14.90
2023-03-08T15:00:23.922Z,14.43
2023-03-08T15:02:52.165Z,14.13
2023-03-08T15:05:29.149Z,13.70
2023-03-08T15:08:00.500Z,14.10
2023-03-08T15:10:33.767Z,13.37
2023-03-08T15:13:03.622Z,14.23
2023-03-08T15:15:32.105Z,14.17
2023-03-08T15:18:00.780Z,14.97
2023-03-08T15:20:29.186Z,14.93
2023-03-08T15:23:01.827Z,12.47
2023-03-08T15:25:32.906Z,10.37
2023-03-08T15:28:02.689Z,10.07
2023-03-08T15:30:33.594Z,7.13
2023-03-08T15:33:02.676Z,4.30
2023-03-08T15:35:31.814Z,3.20
2023-03-08T15:38:00.210Z,2.30
2023-03-08T15:40:31.708Z,3.30
2023-03-08T15:43:01.381Z,3.93
2023-03-08T15:45:31.994Z,2.07
2023-03-08T15:48:03.784Z,4.10
2023-03-08T15:50:33.509Z,8.33
2023-03-08T15:53:02.362Z,2.57
2023-03-08T15:55:32.064Z,2.30
2023-03-08T15:58:00.916Z,2.97
2023-03-08T16:00:30.813Z,2.50
2023-03-08T16:02:59.694Z,2.40
2023-03-08T16:05:29.201Z,2.17
2023-03-08T16:08:00.187Z,2.20
2023-03-08T16:10:31.088Z,2.40
2023-03-08T16:12:59.493Z,2.93
2023-03-08T16:15:30.160Z,2.57
2023-03-08T16:17:58.710Z,2.93
2023-03-08T16:20:27.201Z,3.80
2023-03-08T16:22:56.061Z,4.27
2023-03-08T16:25:24.705Z,3.67
2023-03-08T16:27:53.437Z,4.20
2023-03-08T16:30:22.388Z,3.47
2023-03-08T16:32:55.048Z,2.90
2023-03-08T16:35:23.492Z,3.00
2023-03-08T16:37:54.235Z,2.43
2023-03-08T16:40:22.634Z,3.30
2023-03-08T16:42:53.009Z,4.03
2023-03-08T16:45:21.449Z,3.00
2023-03-08T16:47:49.755Z,2.57
2023-03-08T16:50:19.749Z,2.00
2023-03-08T16:52:48.447Z,2.90
2023-03-08T16:55:16.929Z,2.00
2023-03-08T16:57:45.241Z,2.07
2023-03-08T17:00:15.585Z,2.10
2023-03-08T17:02:45.471Z,3.00
2023-03-08T17:05:13.939Z,2.73
2023-03-08T17:07:43.694Z,2.17
2023-03-08T17:10:13.325Z,2.27
2023-03-08T17:12:42.286Z,2.37
2023-03-08T17:15:12.058Z,2.10
2023-03-08T17:17:41.579Z,2.20
2023-03-08T17:20:13.981Z,1.70
2023-03-08T17:22:44.074Z,2.40
2023-03-08T17:25:12.723Z,2.47
2023-03-08T17:27:41.445Z,1.53
2023-03-08T17:30:14.182Z,1.90
2023-03-08T17:32:42.546Z,1.90
2023-03-08T17:35:11.654Z,2.00
2023-03-08T17:37:41.869Z,1.50
2023-03-08T17:40:14.226Z,1.20
2023-03-08T17:42:42.708Z,1.47
2023-03-08T17:45:12.080Z,1.53
2023-03-08T17:47:40.714Z,1.63
2023-03-08T17:50:12.999Z,1.70
2023-03-08T17:52:41.861Z,1.53
2023-03-08T17:55:12.807Z,1.33
2023-03-08T17:57:41.143Z,1.40
2023-03-08T18:00:12.371Z,1.70
2023-03-08T18:02:40.767Z,2.37
2023-03-08T18:05:11.157Z,2.10
2023-03-08T18:07:41.812Z,2.50
2023-03-08T18:10:13.486Z,2.13
2023-03-08T18:12:41.978Z,1.83
2023-03-08T18:15:12.823Z,1.40
2023-03-08T18:17:41.556Z,1.17
2023-03-08T18:20:12.513Z,1.60
2023-03-08T18:22:42.313Z,1.63
2023-03-08T18:25:13.426Z,1.43
2023-03-08T18:27:42.030Z,1.60
2023-03-08T18:30:12.978Z,1.60
2023-03-08T18:32:41.852Z,1.77
2023-03-08T18:35:13.378Z,2.00
2023-03-08T18:37:41.746Z,1.60
2023-03-08T18:40:13.291Z,1.53
2023-03-08T18:42:43.249Z,1.60
2023-03-08T18:45:13.441Z,1.10
2023-03-08T18:47:42.444Z,1.33
2023-03-08T18:50:13.140Z,0.80
2023-03-08T18:52:41.766Z,0.83
2023-03-08T18:55:12.837Z,1.20
2023-03-08T18:57:41.590Z,0.87
2023-03-08T19:00:12.112Z,0.97
2023-03-08T19:02:40.883Z,0.93
2023-03-08T19:05:10.450Z,1.17
2023-03-08T19:07:41.034Z,1.10
2023-03-08T19:10:14.754Z,1.30
2023-03-08T19:12:44.694Z,1.27
2023-03-08T19:15:13.658Z,1.40
2023-03-08T19:17:41.965Z,2.50
2023-03-08T19:20:12.655Z,2.57
2023-03-08T19:22:43.356Z,1.50
2023-03-08T19:25:15.123Z,2.20
2023-03-08T19:27:43.734Z,1.93
2023-03-08T19:30:13.469Z,1.43
2023-03-08T19:32:42.822Z,2.10
2023-03-08T19:35:14.743Z,3.67
2023-03-08T19:37:43.087Z,3.57
2023-03-08T19:40:14.456Z,1.80
2023-03-08T19:42:43.380Z,2.50
2023-03-08T19:45:14.521Z,3.47
2023-03-08T19:47:42.985Z,2.90
2023-03-08T19:50:13.291Z,2.17
2023-03-08T19:52:41.672Z,2.53
2023-03-08T19:55:12.301Z,2.30
2023-03-08T19:57:42.054Z,1.67
2023-03-08T20:00:14.419Z,1.93
2023-03-08T20:02:45.738Z,2.57
2023-03-08T20:05:14.716Z,1.90
2023-03-08T20:07:43.581Z,2.00
2023-03-08T20:10:21.934Z,1.70
2023-03-08T20:12:52.664Z,1.50
2023-03-08T20:15:21.000Z,2.50
2023-03-08T20:17:49.770Z,2.20
2023-03-08T20:20:18.866Z,2.27
2023-03-08T20:22:47.514Z,1.70
2023-03-08T20:25:17.830Z,1.80
2023-03-08T20:27:46.778Z,2.00
2023-03-08T20:30:15.883Z,1.83
2023-03-08T20:32:44.551Z,2.00
2023-03-08T20:35:15.137Z,2.70
2023-03-08T20:37:44.085Z,2.50
2023-03-08T20:40:20.876Z,2.20
2023-03-08T20:42:49.244Z,1.80
2023-03-08T20:45:17.671Z,1.93
2023-03-08T20:47:46.632Z,2.00
2023-03-08T20:50:15.350Z,1.53
2023-03-08T20:52:44.162Z,1.50
2023-03-08T20:55:12.594Z,1.20
2023-03-08T20:57:42.370Z,1.53
2023-03-08T21:00:13.463Z,1.23
2023-03-08T21:02:41.881Z,0.97
2023-03-08T21:05:11.172Z,1.20
2023-03-08T21:07:39.693Z,1.10
2023-03-08T21:10:09.102Z,0.90
2023-03-08T21:12:39.048Z,0.80
2023-03-08T21:15:10.703Z,0.90
2023-03-08T21:17:40.377Z,0.90
2023-03-08T21:20:11.434Z,0.97
2023-03-08T21:22:40.301Z,0.90
2023-03-08T21:25:09.642Z,0.90
2023-03-08T21:27:38.652Z,1.00
2023-03-08T21:30:11.536Z,1.10
2023-03-08T21:32:39.921Z,1.90
2023-03-08T21:35:10.174Z,1.60
2023-03-08T21:37:38.644Z,7.07
2023-03-08T21:40:08.869Z,5.90
2023-03-08T21:42:37.202Z,2.37
2023-03-08T21:45:06.846Z,2.40
2023-03-08T21:47:36.758Z,3.47
2023-03-08T21:50:05.655Z,3.03
2023-03-08T21:52:33.952Z,2.07
2023-03-08T21:55:02.293Z,2.43
2023-03-08T21:57:33.944Z,2.30
2023-03-08T22:00:02.333Z,2.90
2023-03-08T22:02:45.023Z,3.07
2023-03-08T22:05:15.137Z,2.40
2023-03-08T22:07:44.170Z,2.60
2023-03-08T22:10:14.766Z,2.53
2023-03-08T22:12:47.336Z,2.50
2023-03-08T22:15:17.313Z,2.50
2023-03-08T22:17:47.277Z,3.17
2023-03-08T22:20:15.917Z,2.97
2023-03-08T22:22:45.609Z,2.83
2023-03-08T22:25:14.013Z,2.93
2023-03-08T22:27:42.930Z,3.03
2023-03-08T22:30:13.467Z,3.20
2023-03-08T22:32:42.507Z,3.47
2023-03-08T22:35:14.185Z,3.50
2023-03-08T22:37:45.828Z,3.77
2023-03-08T22:40:16.951Z,3.93
2023-03-08T22:42:48.581Z,4.10
2023-03-08T22:45:17.457Z,4.57
2023-03-08T22:47:46.567Z,4.80
2023-03-08T22:50:16.214Z,4.60
2023-03-08T22:52:45.327Z,4.80
2023-03-08T22:55:14.211Z,4.13
2023-03-08T22:57:42.664Z,4.87
2023-03-08T23:00:15.503Z,4.27
2023-03-08T23:02:46.103Z,5.00
2023-03-08T23:05:19.731Z,5.07
2023-03-08T23:07:48.424Z,5.37
2023-03-08T23:10:18.172Z,5.37
2023-03-08T23:12:47.631Z,5.07
2023-03-08T23:15:16.174Z,5.43
2023-03-08T23:17:44.696Z,5.30
2023-03-08T23:20:19.890Z,5.20
2023-03-08T23:22:48.942Z,5.00
2023-03-08T23:25:18.124Z,4.27
2023-03-08T23:27:47.046Z,4.80
2023-03-08T23:30:18.517Z,5.50
2023-03-08T23:32:46.863Z,5.00
2023-03-08T23:35:16.671Z,5.10
2023-03-08T23:37:46.932Z,5.03
2023-03-08T23:40:16.237Z,5.50
2023-03-08T23:42:44.476Z,5.23
2023-03-08T23:45:13.913Z,5.27
2023-03-08T23:47:42.432Z,5.43
2023-03-08T23:50:12.554Z,5.37
2023-03-08T23:52:42.159Z,5.50
2023-03-08T23:55:16.133Z,4.83
2023-03-08T23:57:44.425Z,4.63
